createdAt,value
2023-04-13T00:00:48.159Z,100.00
2023-04-13T00:03:17.483Z,100.00
2023-04-13T00:05:46.402Z,100.00
2023-04-13T00:08:13.548Z,100.00
2023-04-13T00:10:43.330Z,100.00
2023-04-13T00:13:10.897Z,100.00
2023-04-13T00:15:43.450Z,100.00
2023-04-13T00:18:13.033Z,100.00
2023-04-13T00:20:46.573Z,100.00
2023-04-13T00:23:13.070Z,100.00
2023-04-13T00:25:39.548Z,100.00
2023-04-13T00:28:06.543Z,100.00
2023-04-13T00:30:33.293Z,100.00
2023-04-13T00:32:59.877Z,100.00
2023-04-13T00:35:26.696Z,100.00
2023-04-13T00:37:53.847Z,100.00
2023-04-13T00:40:20.970Z,100.00
2023-04-13T00:42:49.533Z,100.00
2023-04-13T00:45:18.014Z,100.00
2023-04-13T00:47:48.711Z,100.00
2023-04-13T00:50:20.933Z,100.00
2023-04-13T00:52:48.922Z,100.00
2023-04-13T00:55:20.842Z,100.00
2023-04-13T00:57:50.089Z,100.00
2023-04-13T01:00:17.609Z,100.00
2023-04-13T01:02:44.233Z,100.00
2023-04-13T01:05:12.539Z,100.00
2023-04-13T01:07:49.660Z,100.00
2023-04-13T01:10:19.423Z,100.00
2023-04-13T01:13:05.644Z,100.00
2023-04-13T01:15:37.835Z,100.00
2023-04-13T01:18:08.783Z,100.00
2023-04-13T01:20:42.562Z,100.00
2023-04-13T01:23:18.227Z,100.00
2023-04-13T01:26:06.679Z,100.00
2023-04-13T01:28:36.053Z,100.00
2023-04-13T01:31:05.702Z,100.00
2023-04-13T01:33:33.552Z,100.00
2023-04-13T01:36:03.222Z,100.00
2023-04-13T01:38:29.927Z,100.00
2023-04-13T01:40:57.299Z,100.00
2023-04-13T01:43:25.046Z,100.00
2023-04-13T01:46:04.216Z,100.00
2023-04-13T01:48:51.531Z,100.00
2023-04-13T01:51:31.337Z,100.00
2023-04-13T01:54:02.660Z,100.00
2023-04-13T01:56:29.536Z,100.00
2023-04-13T01:59:00.411Z,100.00
2023-04-13T02:01:27.007Z,100.00
2023-04-13T02:03:53.787Z,100.00
2023-04-13T02:06:20.887Z,100.00
2023-04-13T02:08:47.435Z,100.00
2023-04-13T02:11:13.951Z,100.00
2023-04-13T02:13:40.394Z,100.00
2023-04-13T02:16:07.287Z,100.00
2023-04-13T02:18:33.859Z,100.00
2023-04-13T02:21:11.376Z,100.00
2023-04-13T02:23:40.538Z,100.00
2023-04-13T02:26:13.035Z,100.00
2023-04-13T02:28:40.327Z,100.00
2023-04-13T02:31:07.296Z,100.00
2023-04-13T02:33:36.283Z,100.00
2023-04-13T02:36:04.013Z,100.00
2023-04-13T02:38:32.120Z,100.00
2023-04-13T02:41:00.585Z,100.00
2023-04-13T02:43:27.382Z,100.00
2023-04-13T02:45:54.015Z,100.00
2023-04-13T02:48:21.716Z,100.00
2023-04-13T02:50:48.406Z,100.00
2023-04-13T02:53:16.724Z,100.00
2023-04-13T02:55:43.339Z,100.00
2023-04-13T02:58:11.147Z,100.00
2023-04-13T03:00:38.731Z,100.00
2023-04-13T03:03:06.871Z,100.00
2023-04-13T03:05:33.833Z,100.00
2023-04-13T03:08:05.212Z,100.00
2023-04-13T03:10:31.667Z,100.00
2023-04-13T03:12:58.318Z,100.00
2023-04-13T03:15:24.847Z,100.00
2023-04-13T03:17:51.430Z,100.00
2023-04-13T03:20:22.804Z,100.00
2023-04-13T03:22:49.321Z,100.00
2023-04-13T03:25:16.014Z,100.00
2023-04-13T03:27:42.470Z,100.00
2023-04-13T03:30:09.443Z,100.00
2023-04-13T03:32:36.530Z,100.00
2023-04-13T03:35:06.432Z,100.00
2023-04-13T03:37:40.253Z,100.00
2023-04-13T03:40:10.298Z,100.00
2023-04-13T03:42:37.502Z,100.00
2023-04-13T03:45:05.020Z,100.00
2023-04-13T03:47:31.621Z,100.00
2023-04-13T03:49:58.216Z,100.00
2023-04-13T03:52:27.652Z,100.00
2023-04-13T03:54:54.266Z,100.00
2023-04-13T03:57:22.620Z,100.00
2023-04-13T03:59:49.134Z,100.00
2023-04-13T04:02:15.934Z,100.00
2023-04-13T04:04:43.013Z,100.00
2023-04-13T04:07:09.578Z,100.00
2023-04-13T04:09:36.037Z,100.00
2023-04-13T04:12:06.359Z,100.00
2023-04-13T04:14:32.840Z,100.00
2023-04-13T04:16:59.422Z,100.00
2023-04-13T04:19:25.980Z,100.00
2023-04-13T04:21:52.951Z,99.66
2023-04-13T04:24:27.445Z,100.00
2023-04-13T04:26:55.095Z,100.00
2023-04-13T04:29:22.330Z,99.87
2023-04-13T04:31:53.485Z,99.43
2023-04-13T04:34:20.371Z,99.31
2023-04-13T04:36:50.328Z,99.47
2023-04-13T04:39:22.018Z,99.19
2023-04-13T04:41:54.401Z,99.49
2023-04-13T04:44:25.072Z,99.08
2023-04-13T04:46:52.895Z,99.00
2023-04-13T04:49:21.907Z,98.71
2023-04-13T04:51:49.332Z,98.43
2023-04-13T04:54:17.068Z,98.75
2023-04-13T04:56:44.088Z,98.62
2023-04-13T04:59:10.616Z,98.92
2023-04-13T05:01:38.848Z,98.47
2023-04-13T05:04:06.213Z,98.33
2023-04-13T05:06:33.530Z,98.62
2023-04-13T05:09:01.990Z,98.86
2023-04-13T05:11:32.263Z,98.68
2023-04-13T05:13:59.080Z,98.11
2023-04-13T05:16:30.595Z,97.62
2023-04-13T05:18:57.564Z,97.31
2023-04-13T05:21:24.320Z,96.71
2023-04-13T05:23:50.995Z,96.54
2023-04-13T05:26:17.542Z,96.53
2023-04-13T05:28:44.015Z,96.75
2023-04-13T05:31:11.204Z,96.72
2023-04-13T05:33:38.137Z,96.76
2023-04-13T05:36:05.396Z,96.38
2023-04-13T05:38:31.887Z,96.42
2023-04-13T05:40:58.704Z,96.95
2023-04-13T05:43:25.209Z,97.16
2023-04-13T05:45:52.085Z,96.99
2023-04-13T05:48:18.874Z,96.32
2023-04-13T05:50:45.548Z,95.98
2023-04-13T05:53:12.638Z,95.42
2023-04-13T05:55:40.563Z,95.30
2023-04-13T05:58:08.639Z,94.98
2023-04-13T06:00:35.099Z,95.23
2023-04-13T06:03:02.373Z,95.06
2023-04-13T06:05:30.213Z,95.24
2023-04-13T06:07:56.751Z,94.96
2023-04-13T06:10:23.365Z,95.24
2023-04-13T06:12:50.540Z,95.54
2023-04-13T06:15:18.280Z,96.37
2023-04-13T06:17:44.751Z,97.03
2023-04-13T06:20:12.961Z,97.36
2023-04-13T06:22:39.392Z,97.23
2023-04-13T06:25:06.374Z,97.04
2023-04-13T06:27:36.259Z,97.20
2023-04-13T06:30:03.404Z,96.88
2023-04-13T06:32:29.896Z,97.05
2023-04-13T06:34:56.415Z,97.04
2023-04-13T06:37:23.599Z,96.85
2023-04-13T06:39:50.191Z,97.20
2023-04-13T06:42:18.344Z,96.59
2023-04-13T06:44:44.925Z,96.08
2023-04-13T06:47:11.377Z,95.43
2023-04-13T06:49:38.896Z,95.18
2023-04-13T06:52:05.373Z,95.39
2023-04-13T06:54:31.887Z,95.25
2023-04-13T06:56:58.445Z,94.62
2023-04-13T06:59:24.922Z,95.08
2023-04-13T07:01:51.541Z,93.90
2023-04-13T07:04:18.145Z,93.79
2023-04-13T07:06:44.698Z,94.05
2023-04-13T07:09:11.192Z,94.21
2023-04-13T07:11:37.746Z,94.07
2023-04-13T07:14:04.187Z,93.93
2023-04-13T07:16:30.764Z,93.13
2023-04-13T07:18:57.467Z,93.21
2023-04-13T07:21:24.160Z,93.19
2023-04-13T07:23:50.854Z,92.76
2023-04-13T07:26:18.348Z,92.92
2023-04-13T07:28:44.857Z,93.08
2023-04-13T07:31:11.837Z,92.49
2023-04-13T07:33:38.337Z,92.90
2023-04-13T07:36:05.386Z,92.79
2023-04-13T07:38:31.863Z,92.49
2023-04-13T07:40:58.476Z,92.99
2023-04-13T07:43:26.310Z,92.34
2023-04-13T07:45:52.821Z,91.77
2023-04-13T07:48:19.269Z,92.06
2023-04-13T07:50:46.794Z,91.38
2023-04-13T07:53:13.307Z,91.40
2023-04-13T07:55:39.772Z,90.70
2023-04-13T07:58:06.333Z,90.31
2023-04-13T08:00:32.838Z,89.66
2023-04-13T08:02:59.501Z,89.91
2023-04-13T08:05:26.091Z,89.78
2023-04-13T08:07:53.013Z,89.90
2023-04-13T08:10:19.646Z,90.07
2023-04-13T08:12:46.632Z,89.46
2023-04-13T08:15:13.300Z,89.59
2023-04-13T08:17:39.840Z,89.80
2023-04-13T08:20:09.619Z,90.01
2023-04-13T08:22:36.797Z,90.68
2023-04-13T08:25:05.382Z,90.93
2023-04-13T08:27:31.972Z,89.42
2023-04-13T08:30:01.810Z,87.52
2023-04-13T08:32:28.661Z,86.29
2023-04-13T08:34:56.074Z,85.36
2023-04-13T08:37:22.684Z,85.14
2023-04-13T08:39:49.274Z,84.98
2023-04-13T08:42:16.309Z,84.47
2023-04-13T08:44:43.071Z,83.74
2023-04-13T08:47:11.055Z,83.44
2023-04-13T08:49:39.365Z,83.01
2023-04-13T08:52:06.878Z,82.83
2023-04-13T08:54:35.139Z,83.26
2023-04-13T08:57:02.857Z,82.82
2023-04-13T08:59:30.545Z,81.90
2023-04-13T09:01:58.300Z,81.14
2023-04-13T09:04:31.870Z,81.37
2023-04-13T09:07:00.838Z,80.88
2023-04-13T09:09:27.560Z,81.73
2023-04-13T09:11:54.049Z,81.90
2023-04-13T09:14:20.666Z,80.88
2023-04-13T09:16:47.599Z,81.80
2023-04-13T09:19:16.826Z,81.28
2023-04-13T09:21:45.150Z,81.08
2023-04-13T09:24:12.712Z,79.89
2023-04-13T09:26:47.605Z,80.12
2023-04-13T09:29:18.924Z,81.07
2023-04-13T09:31:46.884Z,80.80
2023-04-13T09:34:14.848Z,81.56
2023-04-13T09:36:53.481Z,83.00
2023-04-13T09:39:28.809Z,81.56
2023-04-13T09:41:56.024Z,81.14
2023-04-13T09:44:28.562Z,79.08
2023-04-13T09:47:04.545Z,77.43
2023-04-13T09:49:42.033Z,77.70
2023-04-13T09:52:23.867Z,76.17
2023-04-13T09:54:55.631Z,74.51
2023-04-13T09:57:29.671Z,74.23
2023-04-13T10:00:00.633Z,75.35
2023-04-13T10:02:28.130Z,74.01
2023-04-13T10:04:55.906Z,73.93
2023-04-13T10:07:26.872Z,73.39
2023-04-13T10:09:54.426Z,72.33
2023-04-13T10:12:21.704Z,73.16
2023-04-13T10:14:49.230Z,73.80
2023-04-13T10:17:37.488Z,73.38
2023-04-13T10:20:12.715Z,73.69
2023-04-13T10:22:45.658Z,73.39
2023-04-13T10:25:29.177Z,73.87
2023-04-13T10:27:59.497Z,73.41
2023-04-13T10:30:26.984Z,71.93
2023-04-13T10:33:09.663Z,72.51
2023-04-13T10:35:42.943Z,72.78
2023-04-13T10:38:10.705Z,73.83
2023-04-13T10:40:47.726Z,73.00
2023-04-13T10:43:26.369Z,72.21
2023-04-13T10:46:08.881Z,71.41
2023-04-13T10:48:35.506Z,72.20
2023-04-13T10:51:02.551Z,71.52
2023-04-13T10:53:30.998Z,70.83
2023-04-13T10:55:57.889Z,69.40
2023-04-13T10:58:28.848Z,69.74
2023-04-13T11:00:56.449Z,70.62
2023-04-13T11:03:27.746Z,69.11
2023-04-13T11:05:59.463Z,69.09
2023-04-13T11:08:27.959Z,69.71
2023-04-13T11:10:56.333Z,72.13
2023-04-13T11:13:29.068Z,73.16
2023-04-13T11:16:05.928Z,71.45
2023-04-13T11:18:32.976Z,71.88
2023-04-13T11:20:59.687Z,70.17
2023-04-13T11:23:26.262Z,70.64
2023-04-13T11:26:01.298Z,72.63
2023-04-13T11:28:40.968Z,74.51
2023-04-13T11:31:08.185Z,74.45
2023-04-13T11:33:38.656Z,76.08
2023-04-13T11:36:07.802Z,75.66
2023-04-13T11:38:34.390Z,79.86
2023-04-13T11:41:14.996Z,83.15
2023-04-13T11:43:46.195Z,83.24
2023-04-13T11:46:15.153Z,82.36
2023-04-13T11:48:42.411Z,78.02
2023-04-13T11:51:09.850Z,77.58
2023-04-13T11:53:38.689Z,74.05
2023-04-13T11:56:08.460Z,73.06
2023-04-13T11:58:35.975Z,72.53
2023-04-13T12:01:14.419Z,71.48
2023-04-13T12:03:56.887Z,70.21
2023-04-13T12:06:29.055Z,70.31
2023-04-13T12:09:10.019Z,74.06
2023-04-13T12:11:43.953Z,80.53
2023-04-13T12:19:24.331Z,86.17
2023-04-13T12:21:56.147Z,82.91
2023-04-13T12:24:40.142Z,81.12
2023-04-13T12:27:16.941Z,79.04
2023-04-13T12:29:45.977Z,79.43
2023-04-13T12:32:16.770Z,78.80
2023-04-13T12:34:43.887Z,77.82
2023-04-13T12:37:12.053Z,78.82
2023-04-13T12:39:38.600Z,77.28
2023-04-13T12:42:05.400Z,74.74
2023-04-13T12:44:33.764Z,74.52
2023-04-13T12:47:01.151Z,72.87
2023-04-13T12:49:27.683Z,70.74
2023-04-13T12:51:54.296Z,69.27
2023-04-13T12:54:20.938Z,68.63
2023-04-13T12:56:47.508Z,67.56
2023-04-13T12:59:14.055Z,66.74
2023-04-13T13:01:40.756Z,66.06
2023-04-13T13:04:07.549Z,67.05
2023-04-13T13:06:34.452Z,65.10
2023-04-13T13:09:01.230Z,65.47
2023-04-13T13:11:28.402Z,63.78
2023-04-13T13:13:56.707Z,65.84
2023-04-13T13:16:23.381Z,66.41
2023-04-13T13:18:51.492Z,66.09
2023-04-13T13:21:19.450Z,64.21
2023-04-13T13:23:46.216Z,64.48
2023-04-13T13:26:24.089Z,66.41
2023-04-13T13:28:52.811Z,65.59
2023-04-13T13:31:19.635Z,66.30
2023-04-13T13:33:46.335Z,66.60
2023-04-13T13:36:14.212Z,65.68
2023-04-13T13:38:43.008Z,66.62
2023-04-13T13:41:09.818Z,66.84
2023-04-13T13:43:36.322Z,66.48
2023-04-13T13:46:05.327Z,66.67
2023-04-13T13:48:32.145Z,67.33
2023-04-13T13:50:58.600Z,68.55
2023-04-13T13:53:25.148Z,68.62
2023-04-13T13:55:52.808Z,69.17
2023-04-13T13:58:19.435Z,69.55
2023-04-13T14:00:46.070Z,68.32
2023-04-13T14:03:14.629Z,69.83
2023-04-13T14:05:43.071Z,70.84
2023-04-13T14:08:13.277Z,69.96
2023-04-13T14:10:41.551Z,68.74
2023-04-13T14:13:08.617Z,68.44
2023-04-13T14:15:35.211Z,67.83
2023-04-13T14:18:11.031Z,68.83
2023-04-13T14:20:39.412Z,68.61
2023-04-13T14:23:06.603Z,69.03
2023-04-13T14:25:33.174Z,70.23
2023-04-13T14:27:59.633Z,70.25
2023-04-13T14:30:27.786Z,69.75
2023-04-13T14:32:54.898Z,70.07
2023-04-13T14:35:21.655Z,70.49
2023-04-13T14:37:48.118Z,71.19
2023-04-13T14:40:17.041Z,70.96
2023-04-13T14:42:46.831Z,70.54
2023-04-13T14:45:13.833Z,70.99
2023-04-13T14:47:40.421Z,71.27
2023-04-13T14:50:08.365Z,70.41
2023-04-13T14:52:34.990Z,70.83
2023-04-13T14:55:01.600Z,70.63
2023-04-13T14:57:32.343Z,70.31
2023-04-13T14:59:58.956Z,71.01
2023-04-13T15:02:27.560Z,71.10
2023-04-13T15:04:54.723Z,70.77
2023-04-13T15:07:21.732Z,70.71
2023-04-13T15:09:48.950Z,69.08
2023-04-13T15:12:15.505Z,68.97
2023-04-13T15:14:46.539Z,70.86
2023-04-13T15:17:13.393Z,70.32
2023-04-13T15:19:39.969Z,69.30
2023-04-13T15:22:09.177Z,68.84
2023-04-13T15:24:38.658Z,66.98
2023-04-13T15:27:05.387Z,66.99
2023-04-13T15:29:31.942Z,65.87
2023-04-13T15:32:02.042Z,62.92
2023-04-13T15:34:28.640Z,61.51
2023-04-13T15:36:57.071Z,62.04
2023-04-13T15:39:23.544Z,59.78
2023-04-13T15:41:52.118Z,60.74
2023-04-13T15:44:20.148Z,61.71
2023-04-13T15:46:48.046Z,60.25
2023-04-13T15:49:14.619Z,59.97
2023-04-13T15:51:41.299Z,60.27
2023-04-13T15:54:07.738Z,59.58
2023-04-13T15:56:34.272Z,59.91
2023-04-13T15:59:01.031Z,60.16
2023-04-13T16:01:27.801Z,60.40
2023-04-13T16:03:55.822Z,60.57
2023-04-13T16:06:22.726Z,60.62
2023-04-13T16:08:49.262Z,61.37
2023-04-13T16:11:15.769Z,61.79
2023-04-13T16:13:49.460Z,59.50
2023-04-13T16:16:17.755Z,60.40
2023-04-13T16:18:44.325Z,60.92
2023-04-13T16:21:11.011Z,62.10
2023-04-13T16:23:38.188Z,63.22
2023-04-13T16:26:05.058Z,62.16
2023-04-13T16:28:31.608Z,62.37
2023-04-13T16:30:58.295Z,63.24
2023-04-13T16:33:24.844Z,67.07
2023-04-13T16:35:51.463Z,68.22
2023-04-13T16:38:17.942Z,70.07
2023-04-13T16:40:44.400Z,71.00
2023-04-13T16:43:10.903Z,70.24
2023-04-13T16:45:37.712Z,70.74
2023-04-13T16:48:08.207Z,72.46
2023-04-13T16:50:34.708Z,75.21
2023-04-13T16:53:01.276Z,74.46
2023-04-13T16:55:28.597Z,74.25
2023-04-13T16:57:55.917Z,72.74
2023-04-13T17:00:23.278Z,71.99
2023-04-13T17:02:50.320Z,70.86
2023-04-13T17:05:17.288Z,70.81
2023-04-13T17:07:44.689Z,70.46
2023-04-13T17:10:12.909Z,70.05
2023-04-13T17:12:39.964Z,70.35
2023-04-13T17:15:07.101Z,70.63
2023-04-13T17:17:36.212Z,71.51
2023-04-13T17:20:02.729Z,72.70
2023-04-13T17:22:29.289Z,74.09
2023-04-13T17:24:55.995Z,74.84
2023-04-13T17:27:25.677Z,75.32
2023-04-13T17:29:52.134Z,75.98
2023-04-13T17:32:21.846Z,76.46
2023-04-13T17:34:51.891Z,77.14
2023-04-13T17:37:18.519Z,77.22
2023-04-13T17:39:50.544Z,77.20
2023-04-13T17:42:17.863Z,77.54
2023-04-13T17:44:44.664Z,77.76
2023-04-13T17:47:11.147Z,78.39
2023-04-13T17:49:38.146Z,78.46
2023-04-13T17:52:04.696Z,78.62
2023-04-13T17:54:31.243Z,78.94
2023-04-13T17:56:57.696Z,78.62
2023-04-13T17:59:24.301Z,78.66
2023-04-13T18:01:53.997Z,78.95
2023-04-13T18:04:21.016Z,79.28
2023-04-13T18:06:56.380Z,79.66
2023-04-13T18:09:24.788Z,79.33
2023-04-13T18:11:51.232Z,79.49
2023-04-13T18:14:17.774Z,79.54
2023-04-13T18:16:44.307Z,79.61
2023-04-13T18:19:11.218Z,79.67
2023-04-13T18:21:37.724Z,79.29
2023-04-13T18:24:04.424Z,78.60
2023-04-13T18:26:30.987Z,78.34
2023-04-13T18:28:57.534Z,77.76
2023-04-13T18:31:24.024Z,77.91
2023-04-13T18:33:50.609Z,78.37
2023-04-13T18:36:18.237Z,78.71
2023-04-13T18:38:45.537Z,79.44
2023-04-13T18:41:12.144Z,81.01
2023-04-13T18:43:39.085Z,80.06
2023-04-13T18:46:05.930Z,79.08
2023-04-13T18:48:32.452Z,78.78
2023-04-13T18:51:00.069Z,79.10
2023-04-13T18:53:26.641Z,79.57
2023-04-13T18:55:53.282Z,79.97
2023-04-13T18:58:20.631Z,80.99
2023-04-13T19:00:48.100Z,81.43
2023-04-13T19:03:17.883Z,81.89
2023-04-13T19:05:44.451Z,82.11
2023-04-13T19:08:13.285Z,81.62
2023-04-13T19:10:39.874Z,82.24
2023-04-13T19:13:06.341Z,83.30
2023-04-13T19:15:33.133Z,83.21
2023-04-13T19:18:01.173Z,83.28
2023-04-13T19:20:29.852Z,83.97
2023-04-13T19:22:56.309Z,83.83
2023-04-13T19:25:22.854Z,83.89
2023-04-13T19:27:50.181Z,84.17
2023-04-13T19:30:18.365Z,85.03
2023-04-13T19:32:50.179Z,85.47
2023-04-13T19:35:17.420Z,85.96
2023-04-13T19:37:43.962Z,85.49
2023-04-13T19:40:13.516Z,84.97
2023-04-13T19:42:44.964Z,84.93
2023-04-13T19:45:13.425Z,84.62
2023-04-13T19:47:40.928Z,84.77
2023-04-13T19:50:13.138Z,84.74
2023-04-13T19:52:41.521Z,84.70
2023-04-13T19:55:10.502Z,84.97
2023-04-13T19:57:40.420Z,85.27
2023-04-13T20:00:20.142Z,85.57
2023-04-13T20:02:49.577Z,86.40
2023-04-13T20:05:17.769Z,86.67
2023-04-13T20:07:44.417Z,86.75
2023-04-13T20:10:12.261Z,87.46
2023-04-13T20:12:39.080Z,87.62
2023-04-13T20:15:06.761Z,87.23
2023-04-13T20:17:33.419Z,87.08
2023-04-13T20:20:00.163Z,87.28
2023-04-13T20:22:26.728Z,87.61
2023-04-13T20:24:53.176Z,87.03
2023-04-13T20:27:21.741Z,87.16
2023-04-13T20:29:49.425Z,87.45
2023-04-13T20:32:16.000Z,87.56
2023-04-13T20:34:43.319Z,87.44
2023-04-13T20:37:14.387Z,87.20
2023-04-13T20:39:50.695Z,87.02
2023-04-13T20:42:20.610Z,87.27
2023-04-13T20:44:47.159Z,87.50
2023-04-13T20:47:13.905Z,88.05
2023-04-13T20:49:46.808Z,87.91
2023-04-13T20:52:18.056Z,87.88
2023-04-13T20:54:44.542Z,88.42
2023-04-13T20:57:12.143Z,88.29
2023-04-13T20:59:38.677Z,88.64
2023-04-13T21:02:10.459Z,89.43
2023-04-13T21:04:37.676Z,89.45
2023-04-13T21:07:04.230Z,89.29
2023-04-13T21:09:30.674Z,89.62
2023-04-13T21:11:57.964Z,89.63
2023-04-13T21:14:25.435Z,90.03
2023-04-13T21:16:52.751Z,90.15
2023-04-13T21:19:19.536Z,90.34
2023-04-13T21:21:46.520Z,90.46
2023-04-13T21:24:13.334Z,90.68
2023-04-13T21:26:39.948Z,90.92
2023-04-13T21:29:07.615Z,91.08
2023-04-13T21:31:36.920Z,91.03
2023-04-13T21:34:06.093Z,91.05
2023-04-13T21:39:02.772Z,91.92
2023-04-13T21:41:29.461Z,91.81
2023-04-13T21:43:55.987Z,91.81
2023-04-13T21:46:22.440Z,91.78
2023-04-13T21:48:49.204Z,91.81
2023-04-13T21:51:15.776Z,91.91
2023-04-13T21:53:42.276Z,92.05
2023-04-13T21:56:08.835Z,93.25
2023-04-13T21:58:39.496Z,93.54
2023-04-13T22:01:07.114Z,93.30
2023-04-13T22:03:52.001Z,93.65
2023-04-13T22:06:18.601Z,93.24
2023-04-13T22:08:45.375Z,93.42
2023-04-13T22:11:11.894Z,94.04
2023-04-13T22:13:41.175Z,94.00
2023-04-13T22:16:08.483Z,94.31
2023-04-13T22:18:35.073Z,94.49
2023-04-13T22:21:01.563Z,94.24
2023-04-13T22:23:29.116Z,94.21
2023-04-13T22:26:01.575Z,95.19
2023-04-13T22:28:29.759Z,95.31
2023-04-13T22:30:56.556Z,95.72
2023-04-13T22:33:23.181Z,95.35
2023-04-13T22:35:52.569Z,95.07
2023-04-13T22:38:19.279Z,94.86
2023-04-13T22:40:45.835Z,95.01
2023-04-13T22:43:12.565Z,95.10
2023-04-13T22:45:39.003Z,96.09
2023-04-13T22:48:05.769Z,97.55
2023-04-13T22:50:32.299Z,98.97
2023-04-13T22:52:58.746Z,99.58
2023-04-13T22:55:25.325Z,99.91
2023-04-13T22:57:51.770Z,100.00
2023-04-13T23:00:20.691Z,100.00
2023-04-13T23:02:57.568Z,100.00
2023-04-13T23:05:24.529Z,100.00
2023-04-13T23:07:51.162Z,100.00
2023-04-13T23:10:17.999Z,100.00
2023-04-13T23:12:45.414Z,99.79
2023-04-13T23:15:12.595Z,99.12
2023-04-13T23:17:39.134Z,98.73
2023-04-13T23:20:24.595Z,98.38
2023-04-13T23:22:51.121Z,98.13
2023-04-13T23:25:21.029Z,98.36
2023-04-13T23:27:47.476Z,98.15
2023-04-13T23:30:14.164Z,97.89
2023-04-13T23:32:40.655Z,98.04
2023-04-13T23:35:07.961Z,97.92
2023-04-13T23:37:34.473Z,98.18
2023-04-13T23:40:00.966Z,97.98
2023-04-13T23:42:27.979Z,98.27
2023-04-13T23:44:54.493Z,98.32
2023-04-13T23:47:21.208Z,98.20
2023-04-13T23:49:47.847Z,98.40
2023-04-13T23:52:14.312Z,98.31
2023-04-13T23:54:41.020Z,98.52
2023-04-13T23:57:09.379Z,98.45
2023-04-13T23:59:36.057Z,98.35
